sensor_id;sensor_type;location;lat;lon;timestamp;P1;durP1;ratioP1;P2;durP2;ratioP2
13325;SDS011;6732;51.044;3.746;2023-03-20T00:00:41;14.13;;;9.70;;
13325;SDS011;6732;51.044;3.746;2023-03-20T00:03:09;15.87;;;9.67;;
13325;SDS011;6732;51.044;3.746;2023-03-20T00:05:36;10.67;;;9.47;;
13325;SDS011;6732;51.044;3.746;2023-03-20T00:08:02;12.90;;;9.13;;
13325;SDS011;6732;51.044;3.746;2023-03-20T00:10:30;14.53;;;9.93;;
13325;SDS011;6732;51.044;3.746;2023-03-20T00:12:57;12.60;;;9.23;;
13325;SDS011;6732;51.044;3.746;2023-03-20T00:17:50;11.23;;;8.67;;
13325;SDS011;6732;51.044;3.746;2023-03-20T00:20:17;13.23;;;9.63;;
13325;SDS011;6732;51.044;3.746;2023-03-20T00:22:43;12.00;;;9.70;;
13325;SDS011;6732;51.044;3.746;2023-03-20T00:25:13;14.63;;;9.80;;
13325;SDS011;6732;51.044;3.746;2023-03-20T00:27:40;16.00;;;9.93;;
13325;SDS011;6732;51.044;3.746;2023-03-20T00:32:46;14.03;;;9.60;;
13325;SDS011;6732;51.044;3.746;2023-03-20T00:35:17;12.37;;;9.77;;
13325;SDS011;6732;51.044;3.746;2023-03-20T00:37:43;10.83;;;9.30;;
13325;SDS011;6732;51.044;3.746;2023-03-20T00:40:10;13.33;;;10.07;;
13325;SDS011;6732;51.044;3.746;2023-03-20T00:42:36;15.40;;;10.30;;
13325;SDS011;6732;51.044;3.746;2023-03-20T00:45:03;11.43;;;9.67;;
13325;SDS011;6732;51.044;3.746;2023-03-20T00:47:29;12.73;;;10.20;;
13325;SDS011;6732;51.044;3.746;2023-03-20T00:49:57;12.97;;;9.63;;
13325;SDS011;6732;51.044;3.746;2023-03-20T00:52:24;13.50;;;10.57;;
13325;SDS011;6732;51.044;3.746;2023-03-20T00:54:50;12.20;;;10.00;;
13325;SDS011;6732;51.044;3.746;2023-03-20T00:57:21;13.43;;;10.17;;
13325;SDS011;6732;51.044;3.746;2023-03-20T00:59:53;12.47;;;9.37;;
13325;SDS011;6732;51.044;3.746;2023-03-20T01:02:21;12.10;;;10.03;;
13325;SDS011;6732;51.044;3.746;2023-03-20T01:04:48;15.10;;;9.33;;
13325;SDS011;6732;51.044;3.746;2023-03-20T01:07:16;18.63;;;9.90;;
13325;SDS011;6732;51.044;3.746;2023-03-20T01:09:43;15.20;;;9.20;;
13325;SDS011;6732;51.044;3.746;2023-03-20T01:12:10;14.97;;;10.03;;
13325;SDS011;6732;51.044;3.746;2023-03-20T01:14:37;11.47;;;9.43;;
13325;SDS011;6732;51.044;3.746;2023-03-20T01:17:03;14.73;;;9.23;;
13325;SDS011;6732;51.044;3.746;2023-03-20T01:19:30;13.37;;;9.03;;
13325;SDS011;6732;51.044;3.746;2023-03-20T01:21:56;14.63;;;9.20;;
13325;SDS011;6732;51.044;3.746;2023-03-20T01:24:22;14.30;;;9.20;;
13325;SDS011;6732;51.044;3.746;2023-03-20T01:26:48;12.90;;;8.43;;
13325;SDS011;6732;51.044;3.746;2023-03-20T01:29:18;13.13;;;8.10;;
13325;SDS011;6732;51.044;3.746;2023-03-20T01:31:44;16.13;;;9.10;;
13325;SDS011;6732;51.044;3.746;2023-03-20T01:34:11;13.90;;;8.20;;
13325;SDS011;6732;51.044;3.746;2023-03-20T01:36:37;11.80;;;7.83;;
13325;SDS011;6732;51.044;3.746;2023-03-20T01:39:04;10.37;;;8.17;;
13325;SDS011;6732;51.044;3.746;2023-03-20T01:41:31;14.23;;;8.97;;
13325;SDS011;6732;51.044;3.746;2023-03-20T01:44:16;12.63;;;8.43;;
13325;SDS011;6732;51.044;3.746;2023-03-20T01:46:43;13.23;;;8.53;;
13325;SDS011;6732;51.044;3.746;2023-03-20T01:51:46;15.80;;;8.47;;
13325;SDS011;6732;51.044;3.746;2023-03-20T01:54:17;12.07;;;8.53;;
13325;SDS011;6732;51.044;3.746;2023-03-20T01:56:56;14.47;;;8.80;;
13325;SDS011;6732;51.044;3.746;2023-03-20T01:59:32;14.43;;;8.33;;
13325;SDS011;6732;51.044;3.746;2023-03-20T02:01:59;13.77;;;8.77;;
13325;SDS011;6732;51.044;3.746;2023-03-20T02:04:27;14.13;;;8.93;;
13325;SDS011;6732;51.044;3.746;2023-03-20T02:06:55;16.17;;;8.93;;
13325;SDS011;6732;51.044;3.746;2023-03-20T02:09:21;15.93;;;8.37;;
13325;SDS011;6732;51.044;3.746;2023-03-20T02:11:48;13.20;;;9.03;;
13325;SDS011;6732;51.044;3.746;2023-03-20T02:14:14;16.87;;;8.70;;
13325;SDS011;6732;51.044;3.746;2023-03-20T02:16:40;17.93;;;9.40;;
13325;SDS011;6732;51.044;3.746;2023-03-20T02:19:09;14.33;;;9.20;;
13325;SDS011;6732;51.044;3.746;2023-03-20T02:21:45;15.53;;;10.00;;
13325;SDS011;6732;51.044;3.746;2023-03-20T02:27:14;18.33;;;10.20;;
13325;SDS011;6732;51.044;3.746;2023-03-20T02:40:16;15.53;;;9.50;;
13325;SDS011;6732;51.044;3.746;2023-03-20T02:45:29;14.83;;;9.33;;
13325;SDS011;6732;51.044;3.746;2023-03-20T02:48:02;15.37;;;10.00;;
13325;SDS011;6732;51.044;3.746;2023-03-20T02:53:03;19.33;;;9.37;;
13325;SDS011;6732;51.044;3.746;2023-03-20T02:56:17;18.03;;;8.97;;
13325;SDS011;6732;51.044;3.746;2023-03-20T02:58:25;15.03;;;8.90;;
13325;SDS011;6732;51.044;3.746;2023-03-20T03:01:01;17.03;;;8.83;;
13325;SDS011;6732;51.044;3.746;2023-03-20T03:03:32;14.77;;;9.13;;
13325;SDS011;6732;51.044;3.746;2023-03-20T03:06:02;17.10;;;8.83;;
13325;SDS011;6732;51.044;3.746;2023-03-20T03:08:32;15.57;;;8.67;;
13325;SDS011;6732;51.044;3.746;2023-03-20T03:11:05;15.40;;;8.53;;
13325;SDS011;6732;51.044;3.746;2023-03-20T03:13:32;15.20;;;9.00;;
13325;SDS011;6732;51.044;3.746;2023-03-20T03:16:01;13.97;;;9.07;;
13325;SDS011;6732;51.044;3.746;2023-03-20T03:18:29;15.93;;;8.30;;
13325;SDS011;6732;51.044;3.746;2023-03-20T03:20:59;13.53;;;9.10;;
13325;SDS011;6732;51.044;3.746;2023-03-20T03:25:52;14.83;;;8.97;;
13325;SDS011;6732;51.044;3.746;2023-03-20T03:28:25;15.37;;;8.30;;
13325;SDS011;6732;51.044;3.746;2023-03-20T03:30:53;17.63;;;8.73;;
13325;SDS011;6732;51.044;3.746;2023-03-20T03:33:26;13.00;;;8.50;;
13325;SDS011;6732;51.044;3.746;2023-03-20T03:36:17;16.80;;;8.73;;
13325;SDS011;6732;51.044;3.746;2023-03-20T03:38:45;12.80;;;7.67;;
13325;SDS011;6732;51.044;3.746;2023-03-20T03:41:18;12.10;;;7.63;;
13325;SDS011;6732;51.044;3.746;2023-03-20T03:44:09;11.60;;;7.90;;
13325;SDS011;6732;51.044;3.746;2023-03-20T03:47:15;14.90;;;8.57;;
13325;SDS011;6732;51.044;3.746;2023-03-20T03:49:23;15.83;;;7.70;;
13325;SDS011;6732;51.044;3.746;2023-03-20T03:51:53;15.30;;;7.73;;
13325;SDS011;6732;51.044;3.746;2023-03-20T03:54:24;13.23;;;7.60;;
13325;SDS011;6732;51.044;3.746;2023-03-20T03:56:51;14.87;;;7.77;;
13325;SDS011;6732;51.044;3.746;2023-03-20T03:59:21;13.87;;;7.00;;
13325;SDS011;6732;51.044;3.746;2023-03-20T04:01:48;15.97;;;7.80;;
13325;SDS011;6732;51.044;3.746;2023-03-20T04:04:15;14.10;;;7.33;;
13325;SDS011;6732;51.044;3.746;2023-03-20T04:06:41;12.27;;;7.17;;
13325;SDS011;6732;51.044;3.746;2023-03-20T04:09:08;13.20;;;6.90;;
13325;SDS011;6732;51.044;3.746;2023-03-20T04:11:34;12.57;;;6.87;;
13325;SDS011;6732;51.044;3.746;2023-03-20T04:14:01;13.97;;;7.47;;
13325;SDS011;6732;51.044;3.746;2023-03-20T04:16:27;14.13;;;7.07;;
13325;SDS011;6732;51.044;3.746;2023-03-20T04:18:54;14.00;;;6.87;;
13325;SDS011;6732;51.044;3.746;2023-03-20T04:21:20;13.10;;;6.90;;
13325;SDS011;6732;51.044;3.746;2023-03-20T04:23:47;16.57;;;7.37;;
13325;SDS011;6732;51.044;3.746;2023-03-20T04:26:13;11.83;;;6.80;;
13325;SDS011;6732;51.044;3.746;2023-03-20T04:28:40;12.50;;;6.87;;
13325;SDS011;6732;51.044;3.746;2023-03-20T04:31:06;10.20;;;6.40;;
13325;SDS011;6732;51.044;3.746;2023-03-20T04:33:32;11.67;;;7.00;;
13325;SDS011;6732;51.044;3.746;2023-03-20T04:35:59;13.97;;;7.40;;
13325;SDS011;6732;51.044;3.746;2023-03-20T04:38:25;14.93;;;6.73;;
13325;SDS011;6732;51.044;3.746;2023-03-20T04:40:52;14.30;;;7.33;;
13325;SDS011;6732;51.044;3.746;2023-03-20T04:43:18;14.33;;;7.30;;
13325;SDS011;6732;51.044;3.746;2023-03-20T04:45:44;10.93;;;6.33;;
13325;SDS011;6732;51.044;3.746;2023-03-20T04:48:11;14.23;;;6.80;;
13325;SDS011;6732;51.044;3.746;2023-03-20T04:50:37;11.33;;;6.40;;
13325;SDS011;6732;51.044;3.746;2023-03-20T04:53:03;12.77;;;6.53;;
13325;SDS011;6732;51.044;3.746;2023-03-20T04:55:30;11.30;;;6.47;;
13325;SDS011;6732;51.044;3.746;2023-03-20T04:57:56;15.33;;;6.83;;
13325;SDS011;6732;51.044;3.746;2023-03-20T05:00:22;13.30;;;6.90;;
13325;SDS011;6732;51.044;3.746;2023-03-20T05:02:49;15.03;;;6.37;;
13325;SDS011;6732;51.044;3.746;2023-03-20T05:05:15;13.63;;;6.50;;
13325;SDS011;6732;51.044;3.746;2023-03-20T05:07:42;13.93;;;6.47;;
13325;SDS011;6732;51.044;3.746;2023-03-20T05:10:08;13.87;;;6.87;;
13325;SDS011;6732;51.044;3.746;2023-03-20T05:12:35;14.50;;;6.60;;
13325;SDS011;6732;51.044;3.746;2023-03-20T05:15:01;10.63;;;6.47;;
13325;SDS011;6732;51.044;3.746;2023-03-20T05:17:27;12.57;;;6.43;;
13325;SDS011;6732;51.044;3.746;2023-03-20T05:19:54;12.30;;;6.17;;
13325;SDS011;6732;51.044;3.746;2023-03-20T05:22:21;11.50;;;6.10;;
13325;SDS011;6732;51.044;3.746;2023-03-20T05:24:47;12.03;;;6.17;;
13325;SDS011;6732;51.044;3.746;2023-03-20T05:27:14;15.70;;;6.20;;
13325;SDS011;6732;51.044;3.746;2023-03-20T05:29:40;12.73;;;6.40;;
13325;SDS011;6732;51.044;3.746;2023-03-20T05:32:06;29.90;;;22.27;;
13325;SDS011;6732;51.044;3.746;2023-03-20T05:34:33;9.87;;;7.07;;
13325;SDS011;6732;51.044;3.746;2023-03-20T05:36:59;14.47;;;6.20;;
13325;SDS011;6732;51.044;3.746;2023-03-20T05:39:25;13.67;;;8.20;;
13325;SDS011;6732;51.044;3.746;2023-03-20T05:41:52;10.87;;;6.50;;
13325;SDS011;6732;51.044;3.746;2023-03-20T05:44:18;14.13;;;8.43;;
13325;SDS011;6732;51.044;3.746;2023-03-20T05:46:44;11.37;;;7.03;;
13325;SDS011;6732;51.044;3.746;2023-03-20T05:49:10;12.80;;;5.93;;
13325;SDS011;6732;51.044;3.746;2023-03-20T05:51:37;11.17;;;6.20;;
13325;SDS011;6732;51.044;3.746;2023-03-20T05:54:03;12.23;;;7.97;;
13325;SDS011;6732;51.044;3.746;2023-03-20T05:56:29;17.33;;;7.27;;
13325;SDS011;6732;51.044;3.746;2023-03-20T05:58:56;12.63;;;7.23;;
13325;SDS011;6732;51.044;3.746;2023-03-20T06:01:22;12.30;;;8.87;;
13325;SDS011;6732;51.044;3.746;2023-03-20T06:03:48;14.23;;;6.97;;
13325;SDS011;6732;51.044;3.746;2023-03-20T06:06:15;16.57;;;6.67;;
13325;SDS011;6732;51.044;3.746;2023-03-20T06:08:42;14.07;;;7.33;;
13325;SDS011;6732;51.044;3.746;2023-03-20T06:11:08;11.17;;;7.67;;
13325;SDS011;6732;51.044;3.746;2023-03-20T06:13:35;15.33;;;7.03;;
13325;SDS011;6732;51.044;3.746;2023-03-20T06:16:02;12.13;;;6.63;;
13325;SDS011;6732;51.044;3.746;2023-03-20T06:18:28;17.97;;;9.70;;
13325;SDS011;6732;51.044;3.746;2023-03-20T06:20:55;16.03;;;9.50;;
13325;SDS011;6732;51.044;3.746;2023-03-20T06:23:21;15.47;;;8.43;;
13325;SDS011;6732;51.044;3.746;2023-03-20T06:25:48;11.13;;;6.83;;
13325;SDS011;6732;51.044;3.746;2023-03-20T06:28:15;13.13;;;6.57;;
13325;SDS011;6732;51.044;3.746;2023-03-20T06:30:41;9.37;;;6.37;;
13325;SDS011;6732;51.044;3.746;2023-03-20T06:33:08;13.27;;;6.87;;
13325;SDS011;6732;51.044;3.746;2023-03-20T06:35:34;14.80;;;6.83;;
13325;SDS011;6732;51.044;3.746;2023-03-20T06:38:01;14.47;;;6.83;;
13325;SDS011;6732;51.044;3.746;2023-03-20T06:40:28;11.93;;;7.07;;
13325;SDS011;6732;51.044;3.746;2023-03-20T06:42:54;13.17;;;7.20;;
13325;SDS011;6732;51.044;3.746;2023-03-20T06:45:20;13.30;;;7.50;;
13325;SDS011;6732;51.044;3.746;2023-03-20T06:47:47;12.67;;;6.70;;
13325;SDS011;6732;51.044;3.746;2023-03-20T06:50:14;15.67;;;6.50;;
13325;SDS011;6732;51.044;3.746;2023-03-20T06:52:41;13.50;;;6.83;;
13325;SDS011;6732;51.044;3.746;2023-03-20T06:55:07;12.73;;;6.53;;
13325;SDS011;6732;51.044;3.746;2023-03-20T06:57:34;15.97;;;6.20;;
13325;SDS011;6732;51.044;3.746;2023-03-20T07:00:00;11.53;;;6.23;;
13325;SDS011;6732;51.044;3.746;2023-03-20T07:02:26;14.77;;;6.27;;
13325;SDS011;6732;51.044;3.746;2023-03-20T07:04:52;13.10;;;6.53;;
13325;SDS011;6732;51.044;3.746;2023-03-20T07:07:19;11.03;;;6.07;;
13325;SDS011;6732;51.044;3.746;2023-03-20T07:09:46;11.90;;;5.93;;
13325;SDS011;6732;51.044;3.746;2023-03-20T07:12:13;10.17;;;5.40;;
13325;SDS011;6732;51.044;3.746;2023-03-20T07:14:40;12.50;;;6.00;;
13325;SDS011;6732;51.044;3.746;2023-03-20T07:17:06;11.00;;;5.63;;
13325;SDS011;6732;51.044;3.746;2023-03-20T07:19:34;10.27;;;5.47;;
13325;SDS011;6732;51.044;3.746;2023-03-20T07:22:01;9.13;;;5.23;;
13325;SDS011;6732;51.044;3.746;2023-03-20T07:24:28;14.47;;;5.40;;
13325;SDS011;6732;51.044;3.746;2023-03-20T07:26:55;11.80;;;5.43;;
13325;SDS011;6732;51.044;3.746;2023-03-20T07:29:22;13.07;;;5.70;;
13325;SDS011;6732;51.044;3.746;2023-03-20T07:31:48;13.10;;;5.80;;
13325;SDS011;6732;51.044;3.746;2023-03-20T07:34:15;12.77;;;5.20;;
13325;SDS011;6732;51.044;3.746;2023-03-20T07:36:41;12.80;;;5.07;;
13325;SDS011;6732;51.044;3.746;2023-03-20T07:39:08;14.30;;;5.53;;
13325;SDS011;6732;51.044;3.746;2023-03-20T07:41:35;14.10;;;5.60;;
13325;SDS011;6732;51.044;3.746;2023-03-20T07:44:01;14.83;;;5.10;;
13325;SDS011;6732;51.044;3.746;2023-03-20T07:46:27;13.77;;;4.90;;
13325;SDS011;6732;51.044;3.746;2023-03-20T07:48:54;12.97;;;5.20;;
13325;SDS011;6732;51.044;3.746;2023-03-20T07:51:22;11.83;;;5.10;;
13325;SDS011;6732;51.044;3.746;2023-03-20T07:53:48;11.97;;;5.43;;
13325;SDS011;6732;51.044;3.746;2023-03-20T07:56:15;10.60;;;4.73;;
13325;SDS011;6732;51.044;3.746;2023-03-20T07:58:41;12.43;;;4.80;;
13325;SDS011;6732;51.044;3.746;2023-03-20T08:01:07;11.87;;;4.20;;
13325;SDS011;6732;51.044;3.746;2023-03-20T08:03:33;10.03;;;4.53;;
13325;SDS011;6732;51.044;3.746;2023-03-20T08:06:00;8.53;;;4.37;;
13325;SDS011;6732;51.044;3.746;2023-03-20T08:08:28;11.63;;;4.87;;
13325;SDS011;6732;51.044;3.746;2023-03-20T08:10:54;9.73;;;4.37;;
13325;SDS011;6732;51.044;3.746;2023-03-20T08:13:20;9.50;;;4.50;;
13325;SDS011;6732;51.044;3.746;2023-03-20T08:15:46;12.80;;;4.77;;
13325;SDS011;6732;51.044;3.746;2023-03-20T08:18:13;9.53;;;4.67;;
13325;SDS011;6732;51.044;3.746;2023-03-20T08:20:39;11.40;;;4.80;;
13325;SDS011;6732;51.044;3.746;2023-03-20T08:23:05;10.67;;;4.53;;
13325;SDS011;6732;51.044;3.746;2023-03-20T08:25:32;11.13;;;4.90;;
13325;SDS011;6732;51.044;3.746;2023-03-20T08:28:01;14.73;;;5.83;;
13325;SDS011;6732;51.044;3.746;2023-03-20T08:30:28;12.97;;;5.23;;
13325;SDS011;6732;51.044;3.746;2023-03-20T08:32:55;12.77;;;4.70;;
13325;SDS011;6732;51.044;3.746;2023-03-20T08:35:23;10.33;;;5.03;;
13325;SDS011;6732;51.044;3.746;2023-03-20T08:37:49;8.63;;;4.57;;
13325;SDS011;6732;51.044;3.746;2023-03-20T08:40:16;10.90;;;5.00;;
13325;SDS011;6732;51.044;3.746;2023-03-20T08:42:42;8.13;;;5.03;;
13325;SDS011;6732;51.044;3.746;2023-03-20T08:45:08;12.93;;;4.77;;
13325;SDS011;6732;51.044;3.746;2023-03-20T08:47:35;14.03;;;5.03;;
13325;SDS011;6732;51.044;3.746;2023-03-20T08:50:01;14.83;;;5.10;;
13325;SDS011;6732;51.044;3.746;2023-03-20T08:52:28;11.20;;;5.00;;
13325;SDS011;6732;51.044;3.746;2023-03-20T08:54:54;8.00;;;4.70;;
13325;SDS011;6732;51.044;3.746;2023-03-20T08:57:20;12.13;;;5.07;;
13325;SDS011;6732;51.044;3.746;2023-03-20T08:59:46;9.90;;;5.33;;
13325;SDS011;6732;51.044;3.746;2023-03-20T09:02:13;11.83;;;5.27;;
13325;SDS011;6732;51.044;3.746;2023-03-20T09:04:39;11.37;;;5.20;;
13325;SDS011;6732;51.044;3.746;2023-03-20T09:07:06;16.73;;;5.63;;
13325;SDS011;6732;51.044;3.746;2023-03-20T09:09:32;11.03;;;5.17;;
13325;SDS011;6732;51.044;3.746;2023-03-20T09:11:59;11.97;;;5.33;;
13325;SDS011;6732;51.044;3.746;2023-03-20T09:14:26;11.83;;;5.10;;
13325;SDS011;6732;51.044;3.746;2023-03-20T09:16:52;8.57;;;4.80;;
13325;SDS011;6732;51.044;3.746;2023-03-20T09:19:19;12.53;;;5.30;;
13325;SDS011;6732;51.044;3.746;2023-03-20T09:21:45;11.70;;;5.67;;
13325;SDS011;6732;51.044;3.746;2023-03-20T09:24:11;10.07;;;4.60;;
13325;SDS011;6732;51.044;3.746;2023-03-20T09:26:38;12.73;;;5.30;;
13325;SDS011;6732;51.044;3.746;2023-03-20T09:29:04;14.50;;;5.50;;
13325;SDS011;6732;51.044;3.746;2023-03-20T09:31:31;9.17;;;5.17;;
13325;SDS011;6732;51.044;3.746;2023-03-20T09:33:58;15.03;;;5.40;;
13325;SDS011;6732;51.044;3.746;2023-03-20T09:36:25;12.97;;;5.17;;
13325;SDS011;6732;51.044;3.746;2023-03-20T09:38:51;8.93;;;4.63;;
13325;SDS011;6732;51.044;3.746;2023-03-20T09:41:19;11.23;;;5.20;;
13325;SDS011;6732;51.044;3.746;2023-03-20T09:49:19;15.67;;;5.37;;
13325;SDS011;6732;51.044;3.746;2023-03-20T09:51:50;13.73;;;4.70;;
13325;SDS011;6732;51.044;3.746;2023-03-20T09:54:26;8.90;;;4.70;;
13325;SDS011;6732;51.044;3.746;2023-03-20T09:56:52;15.33;;;5.20;;
13325;SDS011;6732;51.044;3.746;2023-03-20T09:59:19;10.40;;;5.00;;
13325;SDS011;6732;51.044;3.746;2023-03-20T10:04:12;15.00;;;5.00;;
13325;SDS011;6732;51.044;3.746;2023-03-20T10:06:39;11.50;;;4.53;;
13325;SDS011;6732;51.044;3.746;2023-03-20T10:09:27;10.57;;;5.13;;
13325;SDS011;6732;51.044;3.746;2023-03-20T10:17:11;10.60;;;5.13;;
13325;SDS011;6732;51.044;3.746;2023-03-20T10:19:42;13.13;;;5.23;;
13325;SDS011;6732;51.044;3.746;2023-03-20T10:22:22;16.07;;;5.37;;
13325;SDS011;6732;51.044;3.746;2023-03-20T10:24:53;12.47;;;5.40;;
13325;SDS011;6732;51.044;3.746;2023-03-20T10:27:22;15.50;;;4.83;;
13325;SDS011;6732;51.044;3.746;2023-03-20T10:32:35;13.17;;;5.30;;
13325;SDS011;6732;51.044;3.746;2023-03-20T10:35:06;16.20;;;5.50;;
13325;SDS011;6732;51.044;3.746;2023-03-20T10:42:38;13.67;;;5.23;;
13325;SDS011;6732;51.044;3.746;2023-03-20T10:45:52;12.07;;;5.47;;
13325;SDS011;6732;51.044;3.746;2023-03-20T10:47:52;10.23;;;5.10;;
13325;SDS011;6732;51.044;3.746;2023-03-20T10:50:23;11.30;;;4.90;;
13325;SDS011;6732;51.044;3.746;2023-03-20T10:52:52;10.30;;;5.50;;
13325;SDS011;6732;51.044;3.746;2023-03-20T10:55:21;10.67;;;4.87;;
13325;SDS011;6732;51.044;3.746;2023-03-20T10:57:54;10.47;;;5.23;;
13325;SDS011;6732;51.044;3.746;2023-03-20T11:00:23;9.87;;;5.50;;
13325;SDS011;6732;51.044;3.746;2023-03-20T11:02:51;14.20;;;5.20;;
13325;SDS011;6732;51.044;3.746;2023-03-20T11:05:22;10.73;;;5.40;;
13325;SDS011;6732;51.044;3.746;2023-03-20T11:07:50;16.40;;;5.57;;
13325;SDS011;6732;51.044;3.746;2023-03-20T11:10:18;10.30;;;5.23;;
13325;SDS011;6732;51.044;3.746;2023-03-20T11:12:46;16.77;;;5.83;;
13325;SDS011;6732;51.044;3.746;2023-03-20T11:17:50;14.07;;;6.33;;
13325;SDS011;6732;51.044;3.746;2023-03-20T11:20:16;15.87;;;5.77;;
13325;SDS011;6732;51.044;3.746;2023-03-20T11:22:42;16.00;;;5.77;;
13325;SDS011;6732;51.044;3.746;2023-03-20T11:25:21;8.40;;;4.70;;
13325;SDS011;6732;51.044;3.746;2023-03-20T11:27:47;14.90;;;5.80;;
13325;SDS011;6732;51.044;3.746;2023-03-20T11:30:14;11.50;;;4.90;;
13325;SDS011;6732;51.044;3.746;2023-03-20T11:32:46;12.10;;;5.27;;
13325;SDS011;6732;51.044;3.746;2023-03-20T11:35:28;13.90;;;5.47;;
13325;SDS011;6732;51.044;3.746;2023-03-20T11:38:08;16.83;;;5.83;;
13325;SDS011;6732;51.044;3.746;2023-03-20T11:40:35;14.60;;;5.83;;
13325;SDS011;6732;51.044;3.746;2023-03-20T11:45:34;11.77;;;4.90;;
13325;SDS011;6732;51.044;3.746;2023-03-20T11:48:02;11.87;;;4.83;;
13325;SDS011;6732;51.044;3.746;2023-03-20T11:50:30;13.07;;;4.73;;
13325;SDS011;6732;51.044;3.746;2023-03-20T11:52:57;13.83;;;4.40;;
13325;SDS011;6732;51.044;3.746;2023-03-20T11:55:25;9.83;;;4.00;;
13325;SDS011;6732;51.044;3.746;2023-03-20T11:57:55;12.60;;;4.53;;
13325;SDS011;6732;51.044;3.746;2023-03-20T12:00:22;12.33;;;4.97;;
13325;SDS011;6732;51.044;3.746;2023-03-20T12:02:49;11.57;;;4.20;;
13325;SDS011;6732;51.044;3.746;2023-03-20T12:05:28;9.80;;;3.90;;
13325;SDS011;6732;51.044;3.746;2023-03-20T12:07:56;12.40;;;4.37;;
13325;SDS011;6732;51.044;3.746;2023-03-20T12:10:25;10.50;;;4.50;;
13325;SDS011;6732;51.044;3.746;2023-03-20T12:13:03;11.73;;;4.33;;
13325;SDS011;6732;51.044;3.746;2023-03-20T12:15:36;10.23;;;4.47;;
13325;SDS011;6732;51.044;3.746;2023-03-20T12:18:04;13.47;;;4.50;;
13325;SDS011;6732;51.044;3.746;2023-03-20T12:20:36;11.40;;;4.47;;
13325;SDS011;6732;51.044;3.746;2023-03-20T12:23:13;15.30;;;4.67;;
13325;SDS011;6732;51.044;3.746;2023-03-20T12:28:26;15.93;;;5.10;;
13325;SDS011;6732;51.044;3.746;2023-03-20T12:30:57;15.57;;;4.60;;
13325;SDS011;6732;51.044;3.746;2023-03-20T12:36:12;17.00;;;4.67;;
13325;SDS011;6732;51.044;3.746;2023-03-20T12:38:39;16.93;;;4.70;;
13325;SDS011;6732;51.044;3.746;2023-03-20T12:43:36;10.77;;;4.83;;
13325;SDS011;6732;51.044;3.746;2023-03-20T12:46:10;13.60;;;4.40;;
13325;SDS011;6732;51.044;3.746;2023-03-20T12:57:01;12.10;;;4.27;;
13325;SDS011;6732;51.044;3.746;2023-03-20T12:59:31;11.50;;;4.60;;
13325;SDS011;6732;51.044;3.746;2023-03-20T13:07:00;11.57;;;4.90;;
13325;SDS011;6732;51.044;3.746;2023-03-20T13:22:14;15.60;;;4.80;;
13325;SDS011;6732;51.044;3.746;2023-03-20T13:24:47;12.37;;;5.07;;
13325;SDS011;6732;51.044;3.746;2023-03-20T13:27:21;10.40;;;4.57;;
13325;SDS011;6732;51.044;3.746;2023-03-20T13:37:24;14.30;;;4.90;;
13325;SDS011;6732;51.044;3.746;2023-03-20T13:42:35;12.75;;;4.45;;
13325;SDS011;6732;51.044;3.746;2023-03-20T13:45:04;9.27;;;4.40;;
13325;SDS011;6732;51.044;3.746;2023-03-20T13:47:32;12.50;;;4.23;;
13325;SDS011;6732;51.044;3.746;2023-03-20T13:52:32;14.03;;;4.60;;
13325;SDS011;6732;51.044;3.746;2023-03-20T14:00:04;9.57;;;3.80;;
13325;SDS011;6732;51.044;3.746;2023-03-20T14:05:19;14.70;;;4.30;;
13325;SDS011;6732;51.044;3.746;2023-03-20T14:07:48;12.83;;;4.00;;
13325;SDS011;6732;51.044;3.746;2023-03-20T14:12:47;14.07;;;4.38;;
13325;SDS011;6732;51.044;3.746;2023-03-20T14:15:14;14.10;;;3.90;;
13325;SDS011;6732;51.044;3.746;2023-03-20T14:17:44;11.88;;;3.55;;
13325;SDS011;6732;51.044;3.746;2023-03-20T14:20:18;13.00;;;4.43;;
13325;SDS011;6732;51.044;3.746;2023-03-20T14:22:45;7.57;;;3.53;;
13325;SDS011;6732;51.044;3.746;2023-03-20T14:25:17;11.27;;;3.50;;
13325;SDS011;6732;51.044;3.746;2023-03-20T14:27:57;14.00;;;4.03;;
13325;SDS011;6732;51.044;3.746;2023-03-20T14:35:26;13.63;;;3.17;;
13325;SDS011;6732;51.044;3.746;2023-03-20T14:40:20;13.40;;;3.20;;
13325;SDS011;6732;51.044;3.746;2023-03-20T14:42:58;12.77;;;3.65;;
13325;SDS011;6732;51.044;3.746;2023-03-20T14:45:28;11.02;;;3.85;;
13325;SDS011;6732;51.044;3.746;2023-03-20T14:53:17;11.37;;;3.93;;
13325;SDS011;6732;51.044;3.746;2023-03-20T14:55:51;13.53;;;4.03;;
13325;SDS011;6732;51.044;3.746;2023-03-20T15:01:03;10.83;;;3.60;;
13325;SDS011;6732;51.044;3.746;2023-03-20T15:03:30;9.47;;;4.10;;
13325;SDS011;6732;51.044;3.746;2023-03-20T15:05:58;14.87;;;4.07;;
13325;SDS011;6732;51.044;3.746;2023-03-20T15:08:27;12.27;;;3.53;;
13325;SDS011;6732;51.044;3.746;2023-03-20T15:10:58;11.93;;;3.93;;
13325;SDS011;6732;51.044;3.746;2023-03-20T15:13:28;14.30;;;3.63;;
13325;SDS011;6732;51.044;3.746;2023-03-20T15:16:02;11.38;;;3.70;;
13325;SDS011;6732;51.044;3.746;2023-03-20T15:18:35;11.90;;;3.70;;
13325;SDS011;6732;51.044;3.746;2023-03-20T15:21:01;10.90;;;3.97;;
13325;SDS011;6732;51.044;3.746;2023-03-20T15:23:27;12.87;;;3.83;;
13325;SDS011;6732;51.044;3.746;2023-03-20T15:25:54;8.65;;;3.53;;
13325;SDS011;6732;51.044;3.746;2023-03-20T15:30:47;10.33;;;3.33;;
13325;SDS011;6732;51.044;3.746;2023-03-20T15:33:18;11.05;;;3.47;;
13325;SDS011;6732;51.044;3.746;2023-03-20T15:35:47;10.52;;;3.28;;
13325;SDS011;6732;51.044;3.746;2023-03-20T15:38:13;12.32;;;3.80;;
13325;SDS011;6732;51.044;3.746;2023-03-20T15:40:41;11.30;;;4.07;;
13325;SDS011;6732;51.044;3.746;2023-03-20T15:43:25;13.57;;;3.50;;
13325;SDS011;6732;51.044;3.746;2023-03-20T15:45:53;12.95;;;3.58;;
13325;SDS011;6732;51.044;3.746;2023-03-20T15:48:21;8.10;;;3.50;;
13325;SDS011;6732;51.044;3.746;2023-03-20T15:50:52;8.35;;;3.40;;
13325;SDS011;6732;51.044;3.746;2023-03-20T15:53:23;10.37;;;3.97;;
13325;SDS011;6732;51.044;3.746;2023-03-20T15:55:52;8.48;;;2.92;;
13325;SDS011;6732;51.044;3.746;2023-03-20T15:58:23;9.30;;;3.00;;
13325;SDS011;6732;51.044;3.746;2023-03-20T16:00:50;8.93;;;3.00;;
13325;SDS011;6732;51.044;3.746;2023-03-20T16:03:16;11.67;;;3.27;;
13325;SDS011;6732;51.044;3.746;2023-03-20T16:05:45;13.40;;;3.13;;
13325;SDS011;6732;51.044;3.746;2023-03-20T16:08:13;9.00;;;2.90;;
13325;SDS011;6732;51.044;3.746;2023-03-20T16:10:40;10.82;;;2.95;;
13325;SDS011;6732;51.044;3.746;2023-03-20T16:13:13;8.83;;;2.57;;
13325;SDS011;6732;51.044;3.746;2023-03-20T16:15:42;7.40;;;3.17;;
13325;SDS011;6732;51.044;3.746;2023-03-20T16:18:10;9.67;;;3.50;;
13325;SDS011;6732;51.044;3.746;2023-03-20T16:20:40;12.57;;;3.77;;
13325;SDS011;6732;51.044;3.746;2023-03-20T16:23:09;14.00;;;3.22;;
13325;SDS011;6732;51.044;3.746;2023-03-20T16:25:36;13.13;;;3.30;;
13325;SDS011;6732;51.044;3.746;2023-03-20T16:28:03;11.87;;;3.60;;
13325;SDS011;6732;51.044;3.746;2023-03-20T16:30:33;7.77;;;3.47;;
13325;SDS011;6732;51.044;3.746;2023-03-20T16:33:08;12.85;;;3.58;;
13325;SDS011;6732;51.044;3.746;2023-03-20T16:35:44;7.87;;;3.37;;
13325;SDS011;6732;51.044;3.746;2023-03-20T16:40:41;10.53;;;3.43;;
13325;SDS011;6732;51.044;3.746;2023-03-20T16:45:37;12.27;;;3.63;;
13325;SDS011;6732;51.044;3.746;2023-03-20T16:50:33;9.25;;;3.83;;
13325;SDS011;6732;51.044;3.746;2023-03-20T16:53:00;8.60;;;3.80;;
13325;SDS011;6732;51.044;3.746;2023-03-20T16:55:27;8.25;;;3.78;;
13325;SDS011;6732;51.044;3.746;2023-03-20T16:57:56;14.20;;;4.23;;
13325;SDS011;6732;51.044;3.746;2023-03-20T17:00:27;10.47;;;3.70;;
13325;SDS011;6732;51.044;3.746;2023-03-20T17:02:58;10.32;;;3.40;;
13325;SDS011;6732;51.044;3.746;2023-03-20T17:05:33;11.43;;;3.90;;
13325;SDS011;6732;51.044;3.746;2023-03-20T17:08:03;10.43;;;2.70;;
13325;SDS011;6732;51.044;3.746;2023-03-20T17:10:30;10.57;;;3.23;;
13325;SDS011;6732;51.044;3.746;2023-03-20T17:12:57;11.67;;;3.13;;